Time;durP1;ratioP1;P1;durP2;ratioP2;P2;SDS_P1;SDS_P2;PMS_P1;PMS_P2;Temp;Humidity;BMP_temperature;BMP_pressure;BME280_temperature;BME280_humidity;BME280_pressure;Samples;Min_cycle;Max_cycle;Signal;HPM_P1;HPM_P2
2024/03/16 00:00:57;;;;;;;15.90;13.00;;;;;;;12.86;60.69;101902.96;107031;1266;22521;-59
2024/03/16 00:03:25;;;;;;;15.70;12.30;;;;;;;12.86;60.72;101898.61;106913;1259;22588;-58
2024/03/16 00:05:52;;;;;;;15.90;13.40;;;;;;;12.86;60.71;101902.09;106829;1260;25371;-59
2024/03/16 00:08:20;;;;;;;15.70;13.80;;;;;;;12.85;60.71;101899.31;106749;1259;25337;-58
2024/03/16 00:10:47;;;;;;;15.90;13.60;;;;;;;12.83;60.71;101898.48;106795;1260;22529;-59
2024/03/16 00:13:15;;;;;;;14.70;13.10;;;;;;;12.80;60.72;101904.60;106912;1259;23281;-58
2024/03/16 00:15:48;;;;;;;17.40;13.90;;;;;;;12.80;60.84;101902.69;106870;1253;25341;-60
2024/03/16 00:18:16;;;;;;;14.80;13.30;;;;;;;12.80;60.86;101904.09;106961;1259;22530;-58
2024/03/16 00:20:44;;;;;;;18.30;12.30;;;;;;;12.80;61.04;101904.44;107058;1256;22530;-58
2024/03/16 00:23:12;;;;;;;14.50;13.00;;;;;;;12.82;61.01;101906.50;106832;1259;24218;-58
2024/03/16 00:25:40;;;;;;;16.00;14.30;;;;;;;12.82;61.00;101903.01;106707;1262;22533;-58
2024/03/16 00:28:07;;;;;;;16.30;13.70;;;;;;;12.81;60.93;101903.02;107035;1272;25331;-58
2024/03/16 00:30:35;;;;;;;14.60;13.00;;;;;;;12.81;60.99;101900.95;106172;1256;1003072;-58
2024/03/16 00:33:04;;;;;;;15.30;13.50;;;;;;;12.82;60.97;101902.67;106874;1258;22535;-58
2024/03/16 00:35:32;;;;;;;17.00;13.30;;;;;;;12.83;60.91;101903.00;106826;1260;22578;-58
2024/03/16 00:37:59;;;;;;;19.50;14.60;;;;;;;12.80;60.86;101899.91;106987;1263;25246;-58
2024/03/16 00:40:27;;;;;;;19.60;14.60;;;;;;;12.79;60.88;101898.54;106742;1262;22536;-58
2024/03/16 00:42:55;;;;;;;18.60;13.90;;;;;;;12.79;60.99;101900.98;106932;1265;22531;-58
2024/03/16 00:45:23;;;;;;;19.20;14.40;;;;;;;12.78;60.95;101898.19;106824;1269;22527;-58
2024/03/16 00:47:51;;;;;;;19.80;15.00;;;;;;;12.79;61.00;101897.67;107006;1264;25245;-58
2024/03/16 00:50:18;;;;;;;18.30;14.00;;;;;;;12.80;61.06;101896.07;106736;1263;22520;-58
2024/03/16 00:52:46;;;;;;;22.30;16.10;;;;;;;12.81;61.03;101895.38;106900;1254;22524;-58
2024/03/16 00:55:14;;;;;;;20.30;14.00;;;;;;;12.82;61.06;101898.33;106695;1262;22528;-57
2024/03/16 00:57:41;;;;;;;19.00;13.90;;;;;;;12.83;61.09;101896.56;106664;1257;22528;-57
2024/03/16 01:00:10;;;;;;;19.60;14.00;;;;;;;12.83;60.87;101895.52;105869;1262;1002962;-57
2024/03/16 01:02:39;;;;;;;17.40;14.00;;;;;;;12.81;60.87;101894.48;106732;1257;25331;-57
2024/03/16 01:05:07;;;;;;;19.20;14.10;;;;;;;12.78;60.88;101898.19;106641;1264;22521;-58
2024/03/16 01:07:34;;;;;;;17.70;14.30;;;;;;;12.76;60.87;101896.13;106384;1267;25333;-57
2024/03/16 01:10:02;;;;;;;21.60;15.20;;;;;;;12.75;60.92;101897.35;106653;1258;22557;-57
2024/03/16 01:12:30;;;;;;;16.10;12.60;;;;;;;12.76;61.05;101900.14;105871;1270;1003750;-57
2024/03/16 01:14:58;;;;;;;17.80;13.10;;;;;;;12.76;60.92;101897.35;106566;1269;22526;-57
2024/03/16 01:17:26;;;;;;;24.60;12.50;;;;;;;12.75;60.98;101899.98;106623;1257;22524;-57
2024/03/16 01:19:54;;;;;;;20.30;13.50;;;;;;;12.75;60.96;101894.58;106776;1256;22524;-57
2024/03/16 01:22:22;;;;;;;18.90;14.40;;;;;;;12.76;61.04;101896.13;106710;1256;22532;-57
2024/03/16 01:24:49;;;;;;;20.80;15.20;;;;;;;12.77;61.08;101894.73;106552;1258;22543;-57
2024/03/16 01:27:17;;;;;;;20.60;14.30;;;;;;;12.78;61.04;101895.58;106664;1260;25447;-57
2024/03/16 01:29:46;;;;;;;19.00;14.20;;;;;;;12.77;61.11;101894.73;106661;1264;22643;-57
2024/03/16 01:32:14;;;;;;;19.50;14.30;;;;;;;12.77;61.12;101896.81;106667;1260;24256;-57
2024/03/16 01:34:41;;;;;;;23.30;16.30;;;;;;;12.80;61.04;101897.99;106282;1260;543850;-57
2024/03/16 01:37:11;;;;;;;21.90;15.10;;;;;;;12.82;61.09;101901.80;105919;1267;1003736;-57
2024/03/16 01:39:39;;;;;;;24.50;16.50;;;;;;;12.84;60.94;101902.65;106613;1262;22547;-57
2024/03/16 01:42:07;;;;;;;26.60;16.90;;;;;;;12.84;60.96;101903.33;106674;1269;22543;-57
2024/03/16 01:44:34;;;;;;;21.40;15.50;;;;;;;12.85;60.86;101903.51;106777;1269;25374;-57
2024/03/16 01:47:03;;;;;;;23.90;15.10;;;;;;;12.86;60.93;101906.45;106820;1259;22533;-57
2024/03/16 01:49:30;;;;;;;22.00;15.40;;;;;;;12.86;60.80;101909.23;106849;1259;22721;-57
2024/03/16 01:51:58;;;;;;;19.60;14.40;;;;;;;12.84;60.72;101909.26;106951;1260;22627;-57
2024/03/16 01:54:26;;;;;;;21.20;15.80;;;;;;;12.83;60.68;101909.80;106717;1263;22540;-57
2024/03/16 01:56:53;;;;;;;21.70;14.30;;;;;;;12.81;60.66;101910.86;106953;1267;24995;-57
2024/03/16 01:59:21;;;;;;;22.90;16.70;;;;;;;12.81;60.73;101908.96;106818;1263;25465;-57
2024/03/16 02:01:49;;;;;;;22.50;15.70;;;;;;;12.82;60.82;101912.78;106777;1270;22546;-57
2024/03/16 02:04:16;;;;;;;21.30;15.30;;;;;;;12.83;60.83;101912.59;106894;1267;22524;-57
2024/03/16 02:06:48;;;;;;;21.30;16.60;;;;;;;12.83;60.77;101910.48;106955;1259;22541;-57
2024/03/16 02:09:17;;;;;;;24.90;16.50;;;;;;;12.84;60.59;101913.45;107130;1257;22567;-57
2024/03/16 02:11:44;;;;;;;21.50;16.20;;;;;;;12.82;60.59;101915.55;106935;1260;24834;-57
2024/03/16 02:14:12;;;;;;;22.60;16.40;;;;;;;12.81;60.61;101913.83;106893;1263;25275;-58
2024/03/16 02:16:40;;;;;;;21.30;16.50;;;;;;;12.80;60.66;101914.36;106843;1261;24285;-57
2024/03/16 02:19:07;;;;;;;21.00;15.40;;;;;;;12.80;60.57;101919.23;106280;1273;1003421;-57
2024/03/16 02:21:35;;;;;;;19.70;15.60;;;;;;;12.79;60.64;101921.52;106845;1260;22524;-57
2024/03/16 02:24:03;;;;;;;21.00;15.80;;;;;;;12.77;60.59;101923.46;106750;1265;25300;-57
2024/03/16 02:26:31;;;;;;;21.00;16.00;;;;;;;12.76;60.63;101926.25;106810;1260;22524;-57
2024/03/16 02:29:02;;;;;;;21.00;16.20;;;;;;;12.77;60.53;101930.42;106944;1272;22516;-57
2024/03/16 02:31:30;;;;;;;21.00;15.60;;;;;;;12.75;60.62;101931.48;106965;1266;24257;-57
2024/03/16 02:33:58;;;;;;;30.10;17.00;;;;;;;12.64;60.90;101938.59;106995;1268;22531;-57
2024/03/16 02:36:26;;;;;;;28.20;18.60;;;;;;;12.71;60.84;101938.70;106845;1259;22538;-57
2024/03/16 02:38:53;;;;;;;28.60;17.50;;;;;;;12.75;60.72;101936.38;106979;1267;25366;-59
2024/03/16 02:41:22;;;;;;;29.10;18.10;;;;;;;12.76;60.81;101938.79;106737;1264;22538;-58
2024/03/16 02:43:49;;;;;;;28.00;17.50;;;;;;;12.77;60.65;101941.23;106487;1267;22519;-58
2024/03/16 02:46:17;;;;;;;26.30;18.30;;;;;;;12.76;60.64;101943.66;106363;1270;22577;-58
2024/03/16 02:48:45;;;;;;;27.20;18.30;;;;;;;12.76;60.57;101946.63;106631;1260;24270;-58
2024/03/16 02:51:13;;;;;;;27.80;18.20;;;;;;;12.75;60.62;101947.68;106729;1275;22540;-58
2024/03/16 02:53:40;;;;;;;31.10;18.70;;;;;;;12.77;60.69;101949.06;106559;1261;22985;-58
2024/03/16 02:56:08;;;;;;;23.20;15.90;;;;;;;12.77;60.67;101954.62;106666;1268;22520;-58
2024/03/16 02:58:36;;;;;;;25.20;17.70;;;;;;;12.77;60.59;101949.77;106701;1267;22589;-58
2024/03/16 03:01:04;;;;;;;26.60;17.10;;;;;;;12.77;60.70;101951.32;106639;1260;22778;-58
2024/03/16 03:03:31;;;;;;;26.30;16.70;;;;;;;12.77;60.65;101951.67;106630;1266;22618;-58
2024/03/16 03:05:59;;;;;;;32.90;18.40;;;;;;;12.77;60.71;101949.23;106760;1266;22511;-58
2024/03/16 03:08:27;;;;;;;29.90;17.30;;;;;;;12.75;60.84;101950.82;105652;1265;1003706;-58
2024/03/16 03:10:56;;;;;;;27.40;16.00;;;;;;;12.76;60.82;101953.08;105840;1263;1003008;-58
2024/03/16 03:13:24;;;;;;;29.50;16.70;;;;;;;12.78;60.65;101949.57;106621;1257;22551;-58
2024/03/16 03:15:51;;;;;;;32.40;16.90;;;;;;;12.77;60.64;101951.32;106314;1273;22523;-58
2024/03/16 03:18:19;;;;;;;31.40;17.30;;;;;;;12.76;60.59;101952.71;106857;1268;22531;-59
2024/03/16 03:20:47;;;;;;;31.60;17.40;;;;;;;12.76;60.73;101955.67;106852;1266;22528;-58
2024/03/16 03:23:14;;;;;;;32.30;17.40;;;;;;;12.74;60.67;101954.66;106855;1270;22519;-58
2024/03/16 03:25:42;;;;;;;27.40;16.10;;;;;;;12.72;60.72;101952.95;106980;1269;25341;-58
2024/03/16 03:28:09;;;;;;;34.40;17.70;;;;;;;12.71;60.74;101959.23;106793;1261;22524;-57
2024/03/16 03:30:37;;;;;;;30.30;17.50;;;;;;;12.69;60.69;101958.20;106945;1254;25493;-58
2024/03/16 03:33:05;;;;;;;30.40;18.70;;;;;;;12.68;60.83;101962.56;106709;1263;22521;-58
2024/03/16 03:35:34;;;;;;;32.80;16.80;;;;;;;12.68;60.85;101962.74;106492;1266;24243;-57
2024/03/16 03:38:02;;;;;;;33.70;17.30;;;;;;;12.69;60.97;101961.69;105864;1256;1002806;-58
2024/03/16 03:40:30;;;;;;;30.00;16.40;;;;;;;12.69;60.91;101962.90;106626;1257;22716;-57
2024/03/16 03:43:00;;;;;;;32.50;17.00;;;;;;;12.71;60.94;101966.00;106848;1257;22530;-57
2024/03/16 03:45:38;;;;;;;30.70;16.70;;;;;;;12.72;60.91;101964.95;107007;1266;22540;-58
2024/03/16 03:50:53;;;;;;;37.20;18.10;;;;;;;12.74;61.02;101973.82;106909;1262;22532;-57
2024/03/16 03:53:22;;;;;;;35.90;18.50;;;;;;;12.75;60.91;101971.36;106892;1257;22521;-57
2024/03/16 03:55:50;;;;;;;34.70;19.00;;;;;;;12.76;60.90;101976.73;106958;1258;22541;-57
2024/03/16 03:58:18;;;;;;;40.90;20.60;;;;;;;12.77;60.89;101973.61;106821;1266;22531;-58
2024/03/16 04:00:46;;;;;;;43.30;20.90;;;;;;;12.76;60.75;101979.02;106081;1267;1002900;-58
2024/03/16 04:03:14;;;;;;;37.70;20.40;;;;;;;12.74;60.75;101977.81;106788;1268;25236;-57
2024/03/16 04:05:43;;;;;;;40.70;22.00;;;;;;;12.68;60.98;101979.97;106922;1266;22525;-57
2024/03/16 04:08:10;;;;;;;40.80;21.20;;;;;;;12.62;61.08;101978.80;106797;1258;22579;-57
2024/03/16 04:10:39;;;;;;;36.90;18.50;;;;;;;12.69;60.95;101981.19;106801;1267;22524;-57
2024/03/16 04:13:06;;;;;;;37.10;19.50;;;;;;;12.70;60.84;101987.27;106754;1257;22528;-57
2024/03/16 04:15:34;;;;;;;39.20;20.00;;;;;;;12.69;60.79;101987.63;106840;1260;22528;-58
2024/03/16 04:18:02;;;;;;;33.20;18.80;;;;;;;12.67;60.75;101990.61;106761;1256;22517;-57
2024/03/16 04:20:29;;;;;;;30.40;19.20;;;;;;;12.66;60.77;101990.96;106779;1259;22532;-57
2024/03/16 04:22:57;;;;;;;32.60;19.70;;;;;;;12.66;60.81;101992.36;107036;1255;22528;-58
2024/03/16 04:25:24;;;;;;;45.00;21.50;;;;;;;12.66;60.87;101994.44;106812;1257;22528;-57
2024/03/16 04:27:52;;;;;;;43.70;20.50;;;;;;;12.66;60.91;101999.84;106829;1267;22528;-57
2024/03/16 04:30:20;;;;;;;42.70;20.90;;;;;;;12.66;60.92;101998.96;106867;1260;22525;-58
2024/03/16 04:32:47;;;;;;;39.30;20.40;;;;;;;12.66;60.87;101996.36;106684;1276;22537;-57
2024/03/16 04:35:15;;;;;;;32.30;19.60;;;;;;;12.64;60.90;102002.80;106114;1268;1003227;-57
2024/03/16 04:37:43;;;;;;;37.00;20.40;;;;;;;12.63;60.87;102005.96;106775;1268;22567;-57
2024/03/16 04:40:11;;;;;;;32.80;19.30;;;;;;;12.63;61.06;102007.70;106919;1257;22524;-56
2024/03/16 04:42:39;;;;;;;33.00;18.60;;;;;;;12.65;61.06;102010.29;106690;1264;22521;-56
2024/03/16 04:45:07;;;;;;;37.20;20.00;;;;;;;12.66;60.98;102010.81;107048;1254;24243;-57
2024/03/16 04:47:35;;;;;;;32.70;18.40;;;;;;;12.61;61.13;102014.34;107074;1257;22534;-57
2024/03/16 04:50:03;;;;;;;28.60;17.90;;;;;;;12.60;61.19;102015.23;106766;1270;22544;-57
2024/03/16 04:52:30;;;;;;;31.30;18.50;;;;;;;12.58;61.29;102016.29;106801;1270;25490;-56
2024/03/16 04:54:58;;;;;;;32.80;18.80;;;;;;;12.66;61.15;102016.38;106911;1263;24948;-57
2024/03/16 04:57:25;;;;;;;28.20;18.30;;;;;;;12.69;61.00;102017.57;106757;1266;25350;-57
2024/03/16 04:59:53;;;;;;;32.50;18.40;;;;;;;12.72;61.05;102020.67;106999;1268;25327;-57
2024/03/16 05:02:21;;;;;;;29.30;18.10;;;;;;;12.68;61.14;102023.15;106769;1257;22521;-57
2024/03/16 05:04:48;;;;;;;29.90;18.20;;;;;;;12.75;60.96;102023.94;106690;1261;22516;-56
2024/03/16 05:07:16;;;;;;;31.90;18.00;;;;;;;12.81;60.74;102027.70;107018;1261;22524;-56
2024/03/16 05:09:44;;;;;;;29.20;18.20;;;;;;;12.69;61.03;102030.10;106760;1261;25399;-57
2024/03/16 05:12:13;;;;;;;28.60;18.10;;;;;;;12.67;61.19;102030.30;106839;1270;22539;-57
2024/03/16 05:14:41;;;;;;;37.20;19.20;;;;;;;12.63;61.22;102033.30;107026;1256;22531;-57
2024/03/16 05:17:08;;;;;;;33.60;19.30;;;;;;;12.80;60.74;102034.34;106937;1258;22540;-57
2024/03/16 05:19:36;;;;;;;37.60;19.50;;;;;;;12.82;60.63;102036.23;106783;1263;22524;-57
2024/03/16 05:22:03;;;;;;;38.30;19.50;;;;;;;12.85;60.52;102034.27;107006;1254;24252;-56
2024/03/16 05:24:33;;;;;;;41.40;21.00;;;;;;;12.86;60.41;102039.31;106946;1257;22531;-57
2024/03/16 05:27:01;;;;;;;41.80;20.30;;;;;;;12.84;60.36;102036.56;106854;1264;22539;-56
2024/03/16 05:29:28;;;;;;;36.20;20.50;;;;;;;12.66;60.85;102036.05;107086;1260;25278;-57
2024/03/16 05:31:58;;;;;;;40.80;21.40;;;;;;;12.70;60.84;102036.70;106905;1257;22739;-56
2024/03/16 05:34:25;;;;;;;43.30;20.80;;;;;;;12.82;60.45;102038.15;106824;1257;22522;-56
2024/03/16 05:36:53;;;;;;;38.30;21.10;;;;;;;12.84;60.31;102040.55;106854;1255;22531;-57
2024/03/16 05:39:22;;;;;;;33.50;19.90;;;;;;;12.83;60.18;102040.23;106930;1260;22552;-57
2024/03/16 05:41:49;;;;;;;33.60;20.00;;;;;;;12.82;60.30;102041.97;106943;1257;22645;-56
2024/03/16 05:44:17;;;;;;;41.10;21.10;;;;;;;12.84;60.35;102043.87;106942;1258;22531;-56
2024/03/16 05:46:45;;;;;;;40.80;19.50;;;;;;;12.84;60.30;102046.66;106762;1259;25487;-58
2024/03/16 05:49:12;;;;;;;38.40;20.40;;;;;;;12.84;60.33;102045.26;106846;1269;22528;-58
2024/03/16 05:51:40;;;;;;;36.90;21.00;;;;;;;12.86;60.32;102049.08;106692;1256;22534;-58
2024/03/16 05:54:09;;;;;;;39.00;20.70;;;;;;;12.88;60.30;102051.33;106187;1258;1003039;-58
2024/03/16 05:56:37;;;;;;;38.90;18.80;;;;;;;12.89;60.20;102053.74;106902;1254;22540;-57
2024/03/16 05:59:06;;;;;;;43.40;21.80;;;;;;;12.91;60.24;102057.90;106841;1254;22530;-58
2024/03/16 06:01:34;;;;;;;40.00;20.90;;;;;;;12.92;60.30;102054.42;106665;1263;25904;-57
2024/03/16 06:04:03;;;;;;;42.50;21.60;;;;;;;12.94;60.13;102058.21;106981;1254;22519;-58
2024/03/16 06:06:32;;;;;;;37.00;19.70;;;;;;;12.95;60.17;102059.60;106897;1257;22528;-57
2024/03/16 06:09:00;;;;;;;45.40;19.90;;;;;;;12.98;59.98;102065.14;106985;1254;22528;-57
2024/03/16 06:11:27;;;;;;;36.60;19.50;;;;;;;12.99;59.94;102065.14;106820;1258;25278;-57
2024/03/16 06:13:55;;;;;;;43.40;20.90;;;;;;;13.00;59.92;102065.64;106879;1254;24219;-58
2024/03/16 06:16:23;;;;;;;39.10;20.30;;;;;;;13.00;59.79;102067.20;106808;1260;22527;-58
2024/03/16 06:18:50;;;;;;;40.70;20.80;;;;;;;12.99;59.85;102067.05;106669;1258;22533;-58
2024/03/16 06:21:18;;;;;;;40.70;20.40;;;;;;;12.99;59.80;102067.74;106807;1256;22524;-57
2024/03/16 06:23:48;;;;;;;37.40;19.40;;;;;;;13.00;59.74;102068.09;106885;1260;22468;-57
2024/03/16 06:26:19;;;;;;;43.90;21.40;;;;;;;12.99;59.69;102071.75;106799;1257;22549;-56
2024/03/16 06:28:54;;;;;;;43.50;20.60;;;;;;;12.99;59.78;102071.92;107042;1254;22598;-57
2024/03/16 06:31:31;;;;;;;40.40;22.30;;;;;;;13.00;59.83;102075.57;106729;1260;22520;-57
2024/03/16 06:34:01;;;;;;;35.80;20.30;;;;;;;12.88;60.25;102076.56;106810;1254;22528;-57
2024/03/16 06:36:29;;;;;;;43.10;21.70;;;;;;;12.87;60.10;102078.67;107005;1254;22552;-57
2024/03/16 06:38:57;;;;;;;48.20;22.50;;;;;;;12.98;59.94;102078.55;106043;1259;1002798;-57
2024/03/16 06:41:24;;;;;;;48.10;20.80;;;;;;;13.00;59.94;102079.92;106199;1261;1003501;-57
2024/03/16 06:43:52;;;;;;;38.30;20.90;;;;;;;13.02;59.89;102079.38;106838;1269;25252;-58
2024/03/16 06:46:22;;;;;;;38.00;20.70;;;;;;;13.04;59.91;102082.00;107015;1253;22523;-56
2024/03/16 06:48:50;;;;;;;46.30;20.50;;;;;;;13.06;59.87;102079.20;106828;1257;22521;-56
2024/03/16 06:51:18;;;;;;;34.80;19.10;;;;;;;13.06;59.77;102083.57;106819;1261;23892;-58
2024/03/16 06:53:49;;;;;;;38.00;20.00;;;;;;;13.05;59.76;102081.30;106676;1269;23869;-57
2024/03/16 06:56:18;;;;;;;41.00;19.90;;;;;;;13.05;59.74;102079.39;106009;1271;1003500;-57
2024/03/16 06:58:45;;;;;;;41.50;20.00;;;;;;;13.03;59.68;102077.98;106702;1254;25307;-57
2024/03/16 07:01:14;;;;;;;38.20;19.80;;;;;;;13.01;59.82;102076.95;105629;1260;1003949;-58
2024/03/16 07:03:42;;;;;;;30.90;18.80;;;;;;;13.01;59.94;102078.34;106471;1257;22536;-57
2024/03/16 07:06:09;;;;;;;29.40;19.60;;;;;;;13.01;60.00;102081.31;106679;1254;22527;-57
2024/03/16 07:08:38;;;;;;;30.90;18.70;;;;;;;13.03;60.01;102080.77;106489;1261;25243;-57
2024/03/16 07:11:06;;;;;;;40.20;18.10;;;;;;;13.05;60.07;102082.52;106833;1260;22531;-57
2024/03/16 07:13:35;;;;;;;34.40;17.30;;;;;;;13.08;60.03;102082.14;106802;1257;22520;-57
2024/03/16 07:16:03;;;;;;;35.30;18.70;;;;;;;13.10;60.13;102085.27;106832;1260;22554;-57
2024/03/16 07:18:32;;;;;;;32.20;18.70;;;;;;;13.09;60.11;102083.88;106834;1254;24429;-57
2024/03/16 07:21:00;;;;;;;33.90;18.50;;;;;;;12.89;60.77;102083.18;107086;1259;22541;-57
2024/03/16 07:23:28;;;;;;;37.60;19.90;;;;;;;12.90;60.98;102082.82;106866;1254;22537;-59
2024/03/16 07:25:58;;;;;;;36.90;18.20;;;;;;;13.11;60.46;102081.07;106612;1257;22658;-58
2024/03/16 07:28:25;;;;;;;26.60;17.00;;;;;;;13.15;60.20;102081.73;106833;1257;25356;-58
2024/03/16 07:30:56;;;;;;;29.20;18.30;;;;;;;13.13;60.10;102080.88;106744;1276;25274;-58
2024/03/16 07:33:24;;;;;;;30.90;19.70;;;;;;;13.07;60.13;102080.23;107269;1255;25338;-57
2024/03/16 07:35:52;;;;;;;31.60;17.90;;;;;;;13.02;60.18;102077.98;106884;1259;24397;-57
2024/03/16 07:38:20;;;;;;;28.30;17.20;;;;;;;12.97;60.32;102082.21;107032;1269;25359;-57
2024/03/16 07:40:47;;;;;;;29.60;18.30;;;;;;;12.96;60.44;102082.93;106131;1269;1003061;-58
2024/03/16 07:43:15;;;;;;;30.10;17.40;;;;;;;12.95;60.64;102081.03;106079;1254;1003014;-57
2024/03/16 07:45:42;;;;;;;32.30;19.30;;;;;;;12.93;60.63;102086.43;106948;1255;25246;-57
2024/03/16 07:48:10;;;;;;;31.30;18.30;;;;;;;12.94;60.77;102090.62;106992;1269;25865;-57
2024/03/16 07:50:38;;;;;;;32.20;18.70;;;;;;;12.93;60.78;102090.63;107093;1257;24241;-58
2024/03/16 07:53:06;;;;;;;29.50;16.10;;;;;;;12.94;60.89;102095.15;107111;1253;22203;-57
2024/03/16 07:55:33;;;;;;;26.30;15.90;;;;;;;12.96;61.05;102099.65;107128;1257;22531;-57
2024/03/16 07:58:01;;;;;;;26.60;16.00;;;;;;;13.00;60.99;102101.70;106920;1269;22536;-57
2024/03/16 08:00:29;;;;;;;30.30;17.60;;;;;;;13.01;60.89;102101.69;107015;1269;22528;-58
2024/03/16 08:02:57;;;;;;;24.70;16.20;;;;;;;13.02;60.87;102098.89;107091;1270;24316;-57
2024/03/16 08:05:24;;;;;;;28.20;16.60;;;;;;;13.06;60.88;102103.77;107178;1268;25495;-58
2024/03/16 08:07:52;;;;;;;28.10;16.80;;;;;;;13.07;60.79;102100.08;107094;1254;22524;-58
2024/03/16 08:10:19;;;;;;;21.90;15.30;;;;;;;13.08;60.78;102102.52;106909;1274;22523;-57
2024/03/16 08:12:47;;;;;;;21.80;15.50;;;;;;;13.08;60.79;102103.91;107189;1269;24185;-57
2024/03/16 08:15:15;;;;;;;24.80;15.00;;;;;;;13.11;60.99;102103.20;107169;1269;26501;-58
2024/03/16 08:17:43;;;;;;;24.20;14.80;;;;;;;13.15;60.82;102104.36;106263;1257;1003754;-57
2024/03/16 08:20:12;;;;;;;24.40;15.10;;;;;;;13.17;60.76;102105.58;106984;1269;24213;-57
2024/03/16 08:22:44;;;;;;;23.90;14.50;;;;;;;13.17;60.66;102104.69;106264;1269;1003311;-57
2024/03/16 08:25:12;;;;;;;22.20;13.50;;;;;;;13.18;60.61;102105.39;106927;1269;24553;-57
2024/03/16 08:31:00;;;;;;;18.90;12.80;;;;;;;13.30;60.67;102111.69;103748;1306;545129;-56
2024/03/16 08:33:28;;;;;;;21.70;14.00;;;;;;;13.31;60.66;102111.68;106128;1282;22718;-57
2024/03/16 08:35:56;;;;;;;25.10;13.50;;;;;;;13.33;60.42;102110.09;106139;1282;22586;-56
2024/03/16 08:38:24;;;;;;;25.90;13.50;;;;;;;13.30;60.28;102108.55;105890;1283;22629;-56
2024/03/16 08:40:51;;;;;;;22.10;13.70;;;;;;;13.26;60.37;102109.28;105895;1271;25317;-56
2024/03/16 08:43:19;;;;;;;25.00;13.90;;;;;;;13.26;60.32;102110.16;105567;1277;1003137;-56
2024/03/16 08:45:47;;;;;;;20.90;13.30;;;;;;;13.22;60.42;102113.17;106518;1279;246540;-57
2024/03/16 08:48:14;;;;;;;20.40;13.90;;;;;;;13.22;60.51;102112.66;106668;1267;24247;-56
2024/03/16 08:50:42;;;;;;;21.20;13.30;;;;;;;13.17;60.43;102112.53;106534;1263;22537;-59
2024/03/16 08:53:10;;;;;;;20.20;13.70;;;;;;;13.13;60.59;102115.72;106611;1273;25355;-59
2024/03/16 08:55:39;;;;;;;20.70;12.80;;;;;;;13.13;60.84;102116.42;106351;1274;22655;-58
2024/03/16 08:58:07;;;;;;;20.00;13.40;;;;;;;13.12;60.83;102120.61;106412;1266;22531;-57
2024/03/16 09:00:35;;;;;;;16.90;12.70;;;;;;;13.09;60.84;102118.70;106358;1272;23000;-57
2024/03/16 09:03:04;;;;;;;19.30;13.10;;;;;;;13.07;60.91;102117.69;106722;1272;22537;-57
2024/03/16 09:05:33;;;;;;;21.80;13.20;;;;;;;13.03;60.94;102117.01;106860;1272;23305;-57
2024/03/16 09:08:01;;;;;;;21.60;13.90;;;;;;;13.00;60.96;102110.23;106216;1269;22525;-58
2024/03/16 09:10:29;;;;;;;19.40;12.80;;;;;;;12.96;61.06;102112.72;106760;1275;25296;-57
2024/03/16 09:12:56;;;;;;;19.10;13.30;;;;;;;12.93;61.23;102111.35;106760;1258;24069;-58
2024/03/16 09:15:24;;;;;;;20.50;13.80;;;;;;;12.93;61.34;102113.61;106536;1269;22661;-58
2024/03/16 09:17:51;;;;;;;23.60;14.30;;;;;;;12.92;61.49;102110.30;106414;1276;23901;-57
2024/03/16 09:20:19;;;;;;;21.40;13.90;;;;;;;12.93;61.52;102110.66;106630;1258;26922;-57
2024/03/16 09:22:52;;;;;;;24.60;13.70;;;;;;;12.93;61.60;102111.36;106575;1260;24214;-59
2024/03/16 09:25:22;;;;;;;27.10;14.30;;;;;;;12.94;61.62;102111.52;106489;1269;25419;-58
2024/03/16 09:27:50;;;;;;;20.40;12.90;;;;;;;12.93;61.62;102111.52;106608;1268;23884;-58
2024/03/16 09:30:19;;;;;;;24.00;15.20;;;;;;;12.95;61.82;102114.64;106708;1258;24209;-57
2024/03/16 09:32:49;;;;;;;21.00;13.60;;;;;;;12.97;61.84;102113.23;106957;1270;24372;-57
2024/03/16 09:35:17;;;;;;;25.80;13.50;;;;;;;13.03;61.90;102113.17;106830;1258;22534;-57
2024/03/16 09:37:45;;;;;;;23.20;13.20;;;;;;;13.08;61.79;102112.11;106815;1258;25447;-57
2024/03/16 09:40:13;;;;;;;22.70;14.50;;;;;;;13.12;61.87;102111.73;106147;1258;1003636;-56
2024/03/16 09:42:41;;;;;;;22.30;13.80;;;;;;;13.14;61.76;102112.74;106790;1275;22530;-57
2024/03/16 09:45:16;;;;;;;23.90;15.00;;;;;;;13.12;61.56;102117.64;106850;1269;24271;-57
2024/03/16 09:47:47;;;;;;;22.50;14.00;;;;;;;13.12;61.65;102118.88;106760;1271;25371;-57
2024/03/16 09:50:16;;;;;;;24.50;14.60;;;;;;;13.14;61.62;102116.92;106808;1269;22541;-57
2024/03/16 09:52:48;;;;;;;27.10;14.80;;;;;;;13.14;61.65;102116.58;106785;1274;22655;-58
2024/03/16 09:55:15;;;;;;;25.80;14.40;;;;;;;13.14;61.54;102119.36;106845;1271;22516;-58
2024/03/16 09:57:43;;;;;;;26.70;15.00;;;;;;;13.14;61.64;102117.64;106839;1257;25355;-58
2024/03/16 10:00:14;;;;;;;25.60;14.80;;;;;;;13.18;61.68;102122.98;106916;1270;25394;-58
2024/03/16 10:02:42;;;;;;;26.80;14.80;;;;;;;13.25;61.85;102120.11;106988;1269;24202;-58
2024/03/16 10:05:11;;;;;;;30.00;15.10;;;;;;;13.34;61.74;102119.67;106851;1253;24298;-58
2024/03/16 10:07:39;;;;;;;28.80;15.30;;;;;;;13.41;61.69;102122.02;106758;1267;25465;-57
2024/03/16 10:10:10;;;;;;;29.00;14.50;;;;;;;13.47;61.54;102119.84;106749;1272;25376;-58
2024/03/16 10:12:38;;;;;;;;;;;;;;;13.54;61.41;102122.21;106895;1272;22504;-58
2024/03/16 10:15:15;;;;;;;29.50;15.30;;;;;;;13.61;61.18;102121.61;106830;1269;22580;-58
2024/03/16 10:17:43;;;;;;;33.80;16.40;;;;;;;13.68;61.12;102122.20;106778;1275;22531;-58
2024/03/16 10:20:21;;;;;;;30.30;15.80;;;;;;;13.74;60.92;102119.86;106825;1269;24467;-57
2024/03/16 10:22:50;;;;;;;26.70;15.30;;;;;;;13.81;60.73;102116.80;106978;1269;22528;-58
2024/03/16 10:25:18;;;;;;;29.00;15.10;;;;;;;13.87;60.46;102118.11;106796;1276;22552;-58
2024/03/16 10:27:46;;;;;;;27.20;14.60;;;;;;;13.92;60.31;102117.14;106934;1276;25298;-57
2024/03/16 10:30:17;;;;;;;21.50;13.30;;;;;;;13.97;60.02;102117.63;107018;1271;24214;-58
2024/03/16 10:32:48;;;;;;;25.10;13.00;;;;;;;13.99;59.90;102119.52;106871;1269;25499;-57
2024/03/16 10:35:22;;;;;;;19.30;11.80;;;;;;;14.02;59.54;102116.68;106678;1276;24294;-57
2024/03/16 10:37:51;;;;;;;18.30;10.80;;;;;;;14.03;59.47;102115.96;107090;1273;22531;-58
2024/03/16 10:40:21;;;;;;;15.20;9.10;;;;;;;14.05;59.33;102115.08;107023;1269;23837;-57
2024/03/16 10:42:50;;;;;;;20.20;10.00;;;;;;;14.07;59.25;102113.11;106822;1269;25236;-58
2024/03/16 10:45:20;;;;;;;14.40;8.20;;;;;;;14.10;59.32;102114.29;106993;1270;23264;-58
2024/03/16 10:51:09;;;;;;;14.30;8.50;;;;;;;14.22;58.93;102113.06;103872;1299;545078;-56
2024/03/16 10:53:36;;;;;;;13.90;8.30;;;;;;;14.23;58.87;102108.34;105472;1280;1002373;-56
2024/03/16 10:56:05;;;;;;;13.30;8.30;;;;;;;14.26;58.81;102104.61;106383;1280;22527;-58
2024/03/16 10:58:33;;;;;;;12.60;7.40;;;;;;;14.28;58.79;102103.21;106035;1285;22536;-59
2024/03/16 11:01:03;;;;;;;11.20;8.10;;;;;;;14.32;58.76;102103.69;106000;1282;24306;-57
2024/03/16 11:03:31;;;;;;;13.10;8.20;;;;;;;14.33;58.61;102106.27;106360;1285;22545;-57
2024/03/16 11:06:09;;;;;;;11.40;7.40;;;;;;;14.35;58.56;102106.95;106030;1279;240231;-57
2024/03/16 11:08:51;;;;;;;12.20;7.20;;;;;;;14.35;58.52;102107.98;106541;1282;24254;-57
2024/03/16 11:11:20;;;;;;;11.30;7.30;;;;;;;14.35;58.33;102108.00;106476;1280;22628;-57
2024/03/16 11:16:29;;;;;;;11.90;7.40;;;;;;;14.36;58.02;102113.04;107178;1271;22582;-57
2024/03/16 11:18:58;;;;;;;13.80;6.60;;;;;;;14.34;57.93;102110.62;107361;1267;22706;-57